Skip Navigation Links Skip Navigation Links

Current Weather

Michigan City Muni, Michigan City, Ind.

For information only: do not use for flight planning or navigation.
Latest weather
Observation time Saturday, October 19, 2019 5:55 AM EDT
Local time Saturday, October 19, 2019 6:14 AM EDT
Flight conditions Visual Meteorological Conditions
Winds
Wind direction South (170°)
Wind speed 5 mph
Visibility 10 mi.
Sky condition
Ceiling unlimited
Sky clear
Temperature 45°F
Dewpoint 43°F
Altimeter 29.93 in.Hg
Derived measurements
Relative humidity 93%
Wind chill 42°F
Density altitude -183 ft.
Remarks
Fully automated report.
Automated weather observing station with precipitation discriminator.
METAR KMGC 190955Z AUTO 17004KT 10SM CLR 07/06 A2993 RMK AO2

Settings

Location code

InnerDrive.Weather 4.0.6770.0 Release CLR 4.0.30319.42000
Copyright ©2018 Inner Drive Technology. All rights reserved. Portions Copyright ©1986-2018 David Braverman.

Find weather

Site navigation


Skip Navigation Links

Place info

Page info

PayPal - The safer, easier way to pay online!

Return home.

Copyright ©2019 Inner Drive Technology. Purveyors of fine, hand-crafted computer software. Page printed 2019-10-19T10:14:16 UTC.